Airfield :
LOGIN :

Register | Disclaimer

   EN    FR    IT 

 










Legend :    VFR   Marginal VFR   IFR   Intensive IFR   Very Intensive IFR
Visi :
Ceiling :
>= 8 km
>= 3000ft
5 to 8 km
1000 to 3000 ft
1500m to 5 km
500 to 1000 ft
800 to 1500m
200 to 500 ft
< 800m
< 200 ft
Symbols :   Thunderstorms  Fog  Heavy snow  Heavy precipitations  Wind > 20 kt
SIGMETs :     Misc.  Thunderstorms  Icing  Turbulence  Mountain Waves  Volcanic Ashes







- Airport Elevation : 468 ft
- IATA code : GRO


LEGE - Girona Costa Brava

CURRENT METAR :
  • 281230Z 20017KT 170V230 9999 FEW040 30/18 Q1016

EXPIRED METARs :
  • 281200Z 19016KT 160V230 9999 FEW040 30/18 Q1016
  • 281130Z 18015KT 9999 FEW035 30/18 Q1016
  • 281100Z 18015KT 9999 FEW035 29/18 Q1016
  • 281030Z 18014KT 150V210 9999 FEW035 29/18 Q1016
  • 281000Z 18013KT 150V220 9999 FEW035 29/18 Q1016

TAF TAF LEGE
Valid from the 28 at 06:00 until the 29 at 06:00 UTC


280500Z 2806/2906 VRB03KT 9999 FEW030 TX31/2813Z TN19/2905Z
BECMG 2809/2811 18010KT
BECMG 2817/2820 VRB03KT
No reported NOTAMs for that airfield.



MET'MAP, your aeronautical weather chart ! - Copyright ORBIFLY December 2007 - Disclaimer

ORBIFLY MET'MAP TEAM :

Programming & Development : Alexandra Zaïnal
Concept & Development : Baudouin d'Aumeries
Co-Development & Prog : Marc-Olivier Méhu
Technical & hardware support : Manuel Goepfert

Contact : metmap@orbifly.com




SOURCES & CREDITS :

   NOAA